Ana Sayfa
METAR-TAF:

METAR-TAF

Havaalanları :

Shenandoah Municipal Airport

Shenandoah, Iowa, Amerika Birleşik Devletleri

Enlem: 40-45N, Boylam: 095-25W, yükseklik: 296 m

Güncel hava durumu gözlemi

Rapor saat 17:55 UTC de 35 dakika önce yapıldı.
Rüzgar güneydan 21 kt
Sıcaklık 30°C
Nem 40%
Basınç 1011 hPa
Görüş mesafesi: 16.1 km
Açık gökyüzü

METAR: KSDA 121755Z AUTO 19021KT 10SM CLR 30/15 A2984 RMK AO2

Saat: 13:30 (18:30 UTC)


TAF: eksik

4.000'den fazla havaalanı için hava durumu gözlemleri ve tahminleri (METAR ve TAF raporları).

Kullanılabilir istasyonlar harita üzerinde sarı ve kırmızı noktalarla gösterilir.

İstasyonun adını görmek için fareyi noktanın üzerinde gezdirin.

Sonrasında hava gözlem ve tahminlerini görmek için tıklayın.

Haritayı değiştirmek için: yaklaştırmak için siyah artı işaretli yeşil düğmeye ve uzaklaştırmak için de eksi işaretli düğmeye hızla tıklayın; bitişik haritalar için yeşil okları kullanın.


METAR-TAF: